Disclaimer

Please do not use the information listed here in-flight or in-navigation, as they are not provided to us by the airports but are provided by volunteers, so they might be outdated.

Search


Regions


Airport information page

Radio informations:
Tower (TWR) - 136.275 MHz
RDO - 5637 MHz
ATHINAI VOLMET - 127.8 MHz
INFO - 136.025 MHz
Ground (GND) - 121.75 MHz
ATHINAI DIR - 121.4 MHz
ATHINAI DEP - 128.95 MHz
Clearance delivery - 118.675 MHz
Automatic Terminal Information Service (ATIS) - 136.125 MHz
ATHINAI ARR - 132.975 MHz
ATHINAI APP - 126.575 MHz

Airport informations:
Latitude: 37° 56' 10.89" N
Longitude: 023° 56' 40.08" E
Elevation: 308 feet - 94 meters
Operating hours: NO OPERATING HOURS LISTED
Operating agency: Civil government, landing fees and diplomatic clearance may be required
Timezone: UTC+2(+3DT) - Last Sunday in March to last Sunday in October
Fuel: Jet A1+, Jet A1 with icing inhibitor.

100/130 MIL Spec, low lead, aviation gasoline (BLUE)

Runway information:
03R/21L - 13123 x 148 feet< - >4000 x 45 meters
03L/21R - 12467 x 148 feet< - >3800 x 45 meters

Recent METARs:
LGAV 180850Z 01005KT 330V030 6000 -RA SCT012 BKN025 OVC060 12/10 Q1016 RERA TEMPO 5000 RA
LGAV 180920Z 02005KT 7000 SCT016 SCT025 OVC060 13/10 Q1015 TEMPO 5000 RA
LGAV 180950Z 35005KT 320V020 7000 RA SCT016 BKN025 OVC060 13/10 Q1015 TEMPO 5000 RA

Airport on the map: